UTY6327 YPKG-YPPH
Flight info
| Callsign | UTY6327 |
|---|---|
| Flight time | 0h 56m |
| Altitude | 34000 |
| Route | NALAR Q41 MALUP Q158 KABLI |
| Aircraft | E190/M-SDE3GILORVW/S |
Departure
| Time | 2026-05-04 06:05 |
|---|---|
| Airport | Kalgoorlie Boulder Airport (YPKG) |
Arrival
| Time | 2026-05-04 07:01 |
|---|---|
| Airport | Perth International Airport (YPPH) |
| Time | Latitude | Longitude | Altitude | Speed | Heading |
|---|---|---|---|---|---|
| 2026-05-04 05:42 | -30.78593 | 121.45804 | 1211 ft | 0 kts | 59° |
| 2026-05-04 05:58 | -30.78593 | 121.45805 | 1211 ft | 0 kts | 60° |
| 2026-05-04 05:59 | -30.78593 | 121.45807 | 1211 ft | 2 kts | 71° |
| 2026-05-04 05:59 | -30.78594 | 121.45810 | 1211 ft | 0 kts | 90° |
| 2026-05-04 06:00 | -30.78595 | 121.45813 | 1211 ft | 1 kts | 97° |
| 2026-05-04 06:00 | -30.78597 | 121.45818 | 1211 ft | 1 kts | 111° |
| 2026-05-04 06:00 | -30.78600 | 121.45821 | 1211 ft | 0 kts | 131° |
| 2026-05-04 06:00 | -30.78604 | 121.45823 | 1211 ft | 1 kts | 146° |
| 2026-05-04 06:01 | -30.78611 | 121.45825 | 1211 ft | 1 kts | 165° |
| 2026-05-04 06:01 | -30.78620 | 121.45823 | 1211 ft | 2 kts | 190° |
| 2026-05-04 06:03 | -30.78853 | 121.45717 | 1212 ft | 7 kts | 200° |
| 2026-05-04 06:03 | -30.78892 | 121.45706 | 1212 ft | 5 kts | 176° |
| 2026-05-04 06:05 | -30.79333 | 121.52057 | 3351 ft | 212 kts | 34° |
| 2026-05-04 06:05 | -30.76452 | 121.51570 | 4426 ft | 243 kts | 308° |
| 2026-05-04 06:05 | -30.75877 | 121.49667 | 4534 ft | 260 kts | 268° |
| 2026-05-04 06:06 | -30.76412 | 121.47661 | 4442 ft | 266 kts | 232° |
| 2026-05-04 06:06 | -30.77667 | 121.46098 | 4253 ft | 273 kts | 223° |
| 2026-05-04 06:06 | -30.79044 | 121.44573 | 4338 ft | 274 kts | 223° |
| 2026-05-04 06:06 | -30.80170 | 121.42865 | 4558 ft | 259 kts | 242° |
| 2026-05-04 06:07 | -30.80546 | 121.40789 | 4733 ft | 270 kts | 272° |
| 2026-05-04 06:07 | -30.80617 | 121.38604 | 5353 ft | 272 kts | 256° |
| 2026-05-04 06:07 | -30.81276 | 121.36533 | 5947 ft | 272 kts | 242° |
| 2026-05-04 06:07 | -30.82191 | 121.34592 | 6936 ft | 275 kts | 237° |
| 2026-05-04 06:08 | -30.83196 | 121.32683 | 7843 ft | 277 kts | 236° |
| 2026-05-04 06:08 | -30.84211 | 121.30762 | 8727 ft | 280 kts | 235° |
| 2026-05-04 06:08 | -30.85246 | 121.28819 | 9611 ft | 283 kts | 234° |
| 2026-05-04 06:08 | -30.86301 | 121.26851 | 10341 ft | 295 kts | 234° |
| 2026-05-04 06:09 | -30.87410 | 121.24816 | 10888 ft | 307 kts | 234° |
| 2026-05-04 06:09 | -30.88573 | 121.22678 | 11551 ft | 316 kts | 234° |
| 2026-05-04 06:11 | -30.97122 | 121.06928 | 17647 ft | 338 kts | 234° |
| 2026-05-04 06:11 | -30.98397 | 121.04596 | 18433 ft | 342 kts | 234° |
| 2026-05-04 06:13 | -31.07220 | 120.88512 | 22878 ft | 364 kts | 235° |
| 2026-05-04 06:14 | -31.15618 | 120.73281 | 26038 ft | 379 kts | 236° |
| 2026-05-04 06:14 | -31.17037 | 120.70712 | 26523 ft | 381 kts | 236° |
| 2026-05-04 06:15 | -31.18482 | 120.68096 | 27017 ft | 382 kts | 236° |
| 2026-05-04 06:15 | -31.19936 | 120.65467 | 27467 ft | 385 kts | 236° |
| 2026-05-04 06:15 | -31.21384 | 120.62848 | 27905 ft | 387 kts | 236° |
| 2026-05-04 06:15 | -31.22841 | 120.60214 | 28332 ft | 390 kts | 236° |
| 2026-05-04 06:16 | -31.24327 | 120.57528 | 28762 ft | 392 kts | 236° |
| 2026-05-04 06:16 | -31.25801 | 120.54865 | 29171 ft | 394 kts | 236° |
| 2026-05-04 06:16 | -31.27291 | 120.52173 | 29558 ft | 396 kts | 236° |
| 2026-05-04 06:16 | -31.28798 | 120.49450 | 29936 ft | 398 kts | 236° |
| 2026-05-04 06:17 | -31.30306 | 120.46725 | 30308 ft | 400 kts | 237° |
| 2026-05-04 06:17 | -31.31642 | 120.43913 | 30610 ft | 402 kts | 244° |
| 2026-05-04 06:17 | -31.32792 | 120.40908 | 30928 ft | 404 kts | 245° |
| 2026-05-04 06:17 | -31.33935 | 120.37883 | 31236 ft | 406 kts | 245° |
| 2026-05-04 06:18 | -31.35066 | 120.34891 | 31530 ft | 407 kts | 245° |
| 2026-05-04 06:18 | -31.36216 | 120.31850 | 31829 ft | 409 kts | 245° |
| 2026-05-04 06:18 | -31.37369 | 120.28796 | 32110 ft | 410 kts | 245° |
| 2026-05-04 06:20 | -31.45270 | 120.07827 | 34338 ft | 407 kts | 246° |
| 2026-05-04 06:21 | -31.51125 | 119.92191 | 34399 ft | 428 kts | 246° |
| 2026-05-04 06:22 | -31.53519 | 119.85779 | 34314 ft | 429 kts | 246° |
| 2026-05-04 06:25 | -31.70223 | 119.40872 | 34319 ft | 429 kts | 247° |
| 2026-05-04 06:26 | -31.72595 | 119.34461 | 34326 ft | 429 kts | 247° |
| 2026-05-04 06:26 | -31.74973 | 119.28018 | 34325 ft | 429 kts | 247° |
| 2026-05-04 06:27 | -31.80912 | 119.11881 | 34325 ft | 430 kts | 248° |
| 2026-05-04 06:28 | -31.83265 | 119.05459 | 34324 ft | 430 kts | 248° |
| 2026-05-04 06:28 | -31.85628 | 118.98995 | 34330 ft | 430 kts | 248° |
| 2026-05-04 06:29 | -31.87989 | 118.92525 | 34327 ft | 430 kts | 248° |
| 2026-05-04 06:29 | -31.90334 | 118.86085 | 34327 ft | 429 kts | 248° |
| 2026-05-04 06:30 | -31.92684 | 118.79622 | 34325 ft | 429 kts | 248° |
| 2026-05-04 06:30 | -31.95023 | 118.73176 | 34334 ft | 429 kts | 248° |
| 2026-05-04 06:31 | -31.97366 | 118.66702 | 34334 ft | 429 kts | 248° |
| 2026-05-04 06:31 | -31.99707 | 118.60226 | 34331 ft | 429 kts | 248° |
| 2026-05-04 06:33 | -32.09160 | 118.34417 | 34337 ft | 430 kts | 246° |
| 2026-05-04 06:34 | -32.11726 | 118.28043 | 34340 ft | 430 kts | 246° |
| 2026-05-04 06:34 | -32.14278 | 118.21667 | 34337 ft | 430 kts | 246° |
| 2026-05-04 06:36 | -32.24417 | 117.96133 | 34340 ft | 430 kts | 246° |
| 2026-05-04 06:37 | -32.26943 | 117.89741 | 34336 ft | 430 kts | 247° |
| 2026-05-04 06:37 | -32.29466 | 117.83340 | 34336 ft | 430 kts | 247° |
| 2026-05-04 06:38 | -32.31996 | 117.76912 | 34334 ft | 430 kts | 247° |
| 2026-05-04 06:40 | -32.33567 | 117.53928 | 32924 ft | 396 kts | 285° |
| 2026-05-04 06:40 | -32.32804 | 117.50836 | 32391 ft | 391 kts | 285° |
| 2026-05-04 06:40 | -32.32051 | 117.47798 | 31903 ft | 386 kts | 285° |
| 2026-05-04 06:40 | -32.31300 | 117.44749 | 31370 ft | 385 kts | 285° |
| 2026-05-04 06:41 | -32.30555 | 117.41730 | 30892 ft | 387 kts | 284° |
| 2026-05-04 06:41 | -32.29796 | 117.38645 | 30332 ft | 393 kts | 284° |
| 2026-05-04 06:41 | -32.29028 | 117.35517 | 29848 ft | 395 kts | 284° |
| 2026-05-04 06:41 | -32.28268 | 117.32398 | 29291 ft | 399 kts | 284° |
| 2026-05-04 06:42 | -32.27493 | 117.29223 | 28785 ft | 401 kts | 284° |
| 2026-05-04 06:42 | -32.26724 | 117.26061 | 28237 ft | 403 kts | 284° |
| 2026-05-04 06:42 | -32.25957 | 117.22904 | 27714 ft | 404 kts | 284° |
| 2026-05-04 06:44 | -32.20687 | 117.01028 | 24041 ft | 389 kts | 283° |
| 2026-05-04 06:44 | -32.19955 | 116.97955 | 23481 ft | 386 kts | 283° |
| 2026-05-04 06:44 | -32.19231 | 116.94909 | 23005 ft | 382 kts | 283° |
| 2026-05-04 06:45 | -32.18525 | 116.91929 | 22503 ft | 381 kts | 283° |
| 2026-05-04 06:45 | -32.17936 | 116.88865 | 22002 ft | 377 kts | 277° |
| 2026-05-04 06:45 | -32.17536 | 116.85828 | 21493 ft | 376 kts | 276° |
| 2026-05-04 06:45 | -32.17143 | 116.82802 | 21002 ft | 375 kts | 276° |
| 2026-05-04 06:46 | -32.16750 | 116.79776 | 20510 ft | 373 kts | 276° |
| 2026-05-04 06:46 | -32.16352 | 116.76725 | 20016 ft | 371 kts | 276° |
| 2026-05-04 06:46 | -32.15959 | 116.73716 | 19518 ft | 370 kts | 276° |
| 2026-05-04 06:46 | -32.15572 | 116.70758 | 19029 ft | 368 kts | 276° |
| 2026-05-04 06:48 | -32.15796 | 116.50330 | 15696 ft | 353 kts | 261° |
| 2026-05-04 06:48 | -32.16114 | 116.47452 | 15230 ft | 352 kts | 261° |
| 2026-05-04 06:49 | -32.16429 | 116.44590 | 14758 ft | 347 kts | 261° |
| 2026-05-04 06:50 | -32.18436 | 116.25991 | 11718 ft | 317 kts | 261° |
| 2026-05-04 06:51 | -32.18706 | 116.23444 | 11302 ft | 314 kts | 261° |
| 2026-05-04 06:51 | -32.18976 | 116.20890 | 10887 ft | 311 kts | 261° |
| 2026-05-04 06:51 | -32.19244 | 116.18367 | 10476 ft | 308 kts | 261° |
| 2026-05-04 06:51 | -32.19505 | 116.15886 | 10063 ft | 306 kts | 261° |
| 2026-05-04 06:52 | -32.19758 | 116.13397 | 9658 ft | 303 kts | 264° |
| 2026-05-04 06:52 | -32.19839 | 116.10917 | 9043 ft | 307 kts | 269° |
| 2026-05-04 06:52 | -32.19822 | 116.08371 | 8530 ft | 308 kts | 270° |
| 2026-05-04 06:52 | -32.19819 | 116.05851 | 8116 ft | 305 kts | 269° |
| 2026-05-04 06:53 | -32.19835 | 116.03385 | 7707 ft | 301 kts | 269° |
| 2026-05-04 06:53 | -32.19714 | 116.00967 | 7318 ft | 288 kts | 282° |
| 2026-05-04 06:53 | -32.19177 | 115.98743 | 6962 ft | 276 kts | 289° |
| 2026-05-04 06:53 | -32.18588 | 115.96625 | 6577 ft | 267 kts | 288° |
| 2026-05-04 06:54 | -32.18075 | 115.94588 | 6246 ft | 257 kts | 285° |
| 2026-05-04 06:54 | -32.17610 | 115.92570 | 5928 ft | 250 kts | 285° |
| 2026-05-04 06:54 | -32.16877 | 115.90749 | 5561 ft | 244 kts | 314° |
| 2026-05-04 06:54 | -32.15494 | 115.89780 | 5245 ft | 230 kts | 353° |
| 2026-05-04 06:55 | -32.13974 | 115.89966 | 5025 ft | 214 kts | 24° |
| 2026-05-04 06:55 | -32.12649 | 115.90683 | 4792 ft | 206 kts | 27° |
| 2026-05-04 06:55 | -32.11336 | 115.91349 | 4483 ft | 204 kts | 21° |
| 2026-05-04 06:55 | -32.09953 | 115.91831 | 4212 ft | 208 kts | 15° |
| 2026-05-04 06:56 | -32.08564 | 115.92211 | 3822 ft | 208 kts | 14° |
| 2026-05-04 06:57 | -32.00001 | 115.94737 | 1038 ft | 146 kts | 13° |
| 2026-05-04 06:58 | -31.99051 | 115.95024 | 757 ft | 132 kts | 17° |
| 2026-05-04 06:58 | -31.98466 | 115.95207 | 638 ft | 132 kts | 18° |
| 2026-05-04 06:58 | -31.97231 | 115.95564 | 399 ft | 138 kts | 17° |
| 2026-05-04 06:58 | -31.96301 | 115.95840 | 178 ft | 140 kts | 18° |
| 2026-05-04 06:59 | -31.95396 | 115.96104 | 67 ft | 121 kts | 17° |
| 2026-05-04 06:59 | -31.94746 | 115.96299 | 65 ft | 75 kts | 14° |
| 2026-05-04 06:59 | -31.94424 | 115.96391 | 61 ft | 66 kts | 14° |
| 2026-05-04 06:59 | -31.94015 | 115.96508 | 66 ft | 55 kts | 14° |
| 2026-05-04 07:01 | -31.93456 | 115.96433 | 62 ft | 0 kts | 295° |
| 2026-05-04 07:02 | -31.93453 | 115.96427 | 63 ft | 2 kts | 295° |
| 2026-05-04 07:02 | -31.93440 | 115.96394 | 59 ft | 6 kts | 295° |
| 2026-05-04 07:02 | -31.93411 | 115.96345 | 62 ft | 8 kts | 319° |
| 2026-05-04 07:02 | -31.93354 | 115.96317 | 63 ft | 9 kts | 4° |
| 2026-05-04 07:03 | -31.93289 | 115.96323 | 67 ft | 10 kts | 9° |
| 2026-05-04 07:03 | -31.93239 | 115.96319 | 61 ft | 4 kts | 320° |
| 2026-05-04 07:03 | -31.93224 | 115.96286 | 62 ft | 5 kts | 295° |
| 2026-05-04 07:03 | -31.93209 | 115.96244 | 65 ft | 6 kts | 292° |